Latest Weather Observations for Jervois

IDD60801

Issued at 3:05 pm CST Sunday 23 November 2014 (issued every 30 minutes, with the page automatically refreshed every 10 minutes)

About weather observations | Map of weather stations | Latest weather observations for NT | Other Formats
Station Details ID: 015602 Name: JERVOIS Lat: -22.95 Lon: 136.14 Height: 328.0 m
Data from the previous 72 hours. | See also: Recent months at Jervois
Date/Time
CST
Temp
°C
App
Temp
°C
Dew
Point
Rel
Hum
%
Delta-T
°C
Wind Press
QNH
hPa
Press
MSL
hPa
Rain
since 9 am
mm
Dir
 
Spd
km/h
Gust
km/h
Spd
kts
Gust
kts
23/03:00pm 38.1 37.6 11.9 20 16.0 ESE 6 13 3 7 1008.4 1006.3 0.0
23/02:30pm 37.4 35.8 11.5 21 15.7 E 11 15 6 8 1008.5 - 0.0
23/02:00pm 38.9 36.6 10.4 18 17.1 NW 13 26 7 14 1008.8 - 0.0
23/01:30pm 38.7 36.3 10.0 17 17.1 N 13 26 7 14 1009.2 - 0.0
23/01:00pm 40.5 37.2 9.7 16 18.4 NNW 17 28 9 15 1009.7 - 0.0
23/12:30pm 41.6 36.6 9.5 14 19.2 NNW 26 39 14 21 1010.2 - 0.0
23/12:00pm 39.0 36.8 10.8 18 17.0 WNW 13 30 7 16 1010.8 1008.8 0.0
23/11:30am 37.9 34.7 11.3 20 16.1 N 19 26 10 14 1011.4 - 0.0
23/11:00am 38.5 36.2 11.8 20 16.3 N 15 26 8 14 1011.8 - 0.0
23/10:30am 37.6 35.6 12.8 22 15.3 NNW 15 26 8 14 1012.2 - 0.0
23/10:00am 37.2 36.8 13.1 23 14.9 NW 7 15 4 8 1012.6 - 0.0
23/09:30am 34.8 35.2 13.6 28 13.1 W 4 9 2 5 1012.8 - 0.0
23/09:00am 33.7 34.3 15.3 33 11.6 NE 6 9 3 5 1013.0 1010.9 0.0
23/08:30am 31.7 32.4 14.6 35 10.6 SE 4 7 2 4 1012.9 - 0.0
23/08:00am 31.7 33.4 15.2 36 10.3 CALM 0 0 0 0 1012.8 - 0.0
23/07:30am 30.7 32.1 15.5 39 9.5 E 2 9 1 5 1012.7 - 0.0
23/07:00am 28.9 30.7 15.6 44 8.3 CALM 0 6 0 3 1012.5 - 0.0
23/06:30am 28.9 28.7 14.6 41 8.8 SW 9 13 5 7 1012.4 - 0.0
23/06:00am 28.8 27.7 14.4 41 8.8 SW 13 17 7 9 1012.2 1010.1 0.0
23/05:30am 29.0 27.5 14.1 40 9.1 SW 15 26 8 14 1011.9 - 0.0
23/05:00am 30.5 28.8 13.6 35 10.3 SW 15 20 8 11 1011.4 - 0.0
23/04:30am 30.4 30.5 14.5 38 9.8 WNW 7 11 4 6 1010.9 - 0.0
23/04:00am 30.5 29.3 14.0 36 10.1 NW 13 15 7 8 1010.4 - 0.0
23/03:30am 28.6 28.0 13.5 39 9.1 NNW 9 13 5 7 1010.1 - 0.0
23/03:00am 28.9 29.0 14.4 41 8.9 N 7 7 4 4 1010.1 1008.0 0.0
23/02:30am 29.3 29.4 14.5 40 9.1 NNW 7 9 4 5 1010.2 - 0.0
23/02:00am 29.2 29.2 14.3 40 9.1 N 7 9 4 5 1010.5 - 0.0
23/01:30am 29.4 30.1 15.6 43 8.6 NNW 6 7 3 4 1010.8 - 0.0
23/01:00am 29.6 29.8 15.7 43 8.7 N 9 9 5 5 1011.0 - 0.0
23/12:30am 29.4 29.8 16.4 45 8.2 N 9 13 5 7 1011.1 - 0.0
23/12:00am 29.5 29.2 16.4 45 8.3 N 13 15 7 8 1011.2 1009.2 0.0
 
Date/Time
CST
Temp
°C
App
Temp
°C
Dew
Point
Rel
Hum
%
Delta-T
°C
Wind Press
QNH
hPa
Press
MSL
hPa
Rain
since 9 am
mm
Dir
 
Spd
km/h
Gust
km/h
Spd
kts
Gust
kts
22/11:30pm 29.7 30.2 16.6 45 8.3 NNE 9 11 5 6 1011.1 - 0.0
22/11:00pm 30.2 30.5 16.9 44 8.5 NE 11 15 6 8 1011.3 - 0.0
22/10:30pm 30.6 30.8 16.8 43 8.8 NE 11 17 6 9 1011.3 - 0.0
22/10:00pm 30.1 27.9 10.9 30 11.2 NE 13 20 7 11 1010.9 - 0.0
22/09:30pm 31.7 30.5 11.6 29 11.9 NW 9 11 5 6 1010.4 - 0.0
22/09:00pm 31.9 30.1 10.7 27 12.4 NNW 11 15 6 8 1010.2 1008.1 0.0
22/08:30pm 31.2 30.2 11.1 29 11.8 N 7 9 4 5 1009.8 - 0.0
22/08:00pm 31.5 30.9 11.8 30 11.7 NNE 6 7 3 4 1009.6 - 0.0
22/07:30pm 32.6 31.7 11.4 27 12.6 N 7 7 4 4 1009.3 - 0.0
22/07:00pm 34.5 33.9 12.4 26 13.4 NNW 7 7 4 4 1008.9 - 0.0
22/06:30pm 36.5 35.4 10.7 21 15.4 NW 7 11 4 6 1008.9 - 0.0
22/06:00pm 36.8 34.4 9.9 19 15.9 W 13 17 7 9 1009.0 1006.9 0.0
22/05:30pm 37.4 34.9 9.8 18 16.3 W 13 20 7 11 1009.1 - 0.0
22/05:00pm 38.1 34.4 9.4 17 16.9 W 19 30 10 16 1009.1 - 0.0
22/04:30pm 38.4 35.1 9.7 17 17.0 W 17 30 9 16 1009.3 - 0.0
22/04:00pm 38.2 35.9 9.0 17 17.1 W 11 19 6 10 1009.6 - 0.0
22/03:30pm 37.1 34.3 8.7 17 16.5 W 13 19 7 10 1010.2 - 0.0
22/03:00pm 37.2 35.0 9.4 18 16.3 NW 11 22 6 12 1010.6 1008.5 0.0
22/02:30pm 36.4 32.2 9.7 19 15.7 WNW 22 33 12 18 1010.9 - 0.0
22/02:00pm 37.3 33.7 9.9 19 16.2 NW 19 30 10 16 1011.3 - 0.0
22/01:30pm 36.2 32.5 9.6 20 15.6 WNW 19 28 10 15 1011.7 - 0.0
22/01:00pm 35.7 32.4 9.5 20 15.3 WNW 17 24 9 13 1012.1 - 0.0
22/12:30pm 34.8 31.2 9.8 21 14.6 W 19 28 10 15 1012.2 - 0.0
22/12:00pm 34.1 30.3 11.2 24 13.6 NNW 22 30 12 16 1012.9 1010.8 0.0
22/11:30am 35.2 30.5 10.8 22 14.5 N 26 35 14 19 1013.0 - 0.0
22/11:00am 34.9 30.9 10.5 22 14.4 NNW 22 30 12 16 1013.2 - 0.0
22/10:30am 34.3 30.6 10.0 22 14.2 NW 20 26 11 14 1013.3 - 0.0
22/10:00am 35.0 31.6 9.3 20 14.9 NW 17 26 9 14 1013.1 - 0.0
22/09:30am 35.1 31.5 9.8 21 14.8 NW 19 30 10 16 1012.8 - 0.0
22/09:00am 34.1 30.8 11.5 25 13.5 NW 20 30 11 16 1012.5 1010.4 1.0
22/08:30am 33.2 31.3 11.8 27 12.8 WNW 13 19 7 10 1012.4 - 1.0
22/08:00am 32.8 30.2 11.9 28 12.5 WNW 17 22 9 12 1012.4 - 1.0
22/07:30am 32.8 31.0 10.9 26 12.9 NW 11 15 6 8 1011.8 - 1.0
22/07:00am 31.8 30.1 11.3 28 12.1 WNW 11 19 6 10 1011.4 - 1.0
22/06:30am 29.9 29.5 13.1 35 10.1 N 7 9 4 5 1011.1 - 1.0
22/06:00am 30.0 28.4 12.8 34 10.3 N 13 17 7 9 1010.9 1008.8 1.0
22/05:30am 29.9 29.0 12.7 34 10.3 N 9 13 5 7 1010.7 - 1.0
22/05:00am 29.9 30.3 12.5 34 10.4 NW 2 7 1 4 1010.2 - 1.0
22/04:30am 30.0 28.9 11.9 32 10.7 NNW 9 13 5 7 1010.1 - 1.0
22/04:00am 30.5 29.8 13.3 35 10.4 W 9 17 5 9 1009.9 - 1.0
22/03:30am 30.5 28.6 11.7 31 11.1 NW 13 19 7 10 1010.5 - 1.0
22/03:00am 30.1 30.4 12.1 33 10.7 N 2 9 1 5 1010.0 1008.0 1.0
22/02:30am 30.8 30.6 13.1 34 10.7 N 6 15 3 8 1010.5 - 1.0
22/02:00am 31.3 27.8 11.0 28 11.9 ESE 20 28 11 15 1010.4 - 1.0
22/01:30am 32.2 30.7 10.7 26 12.6 W 9 17 5 9 1010.3 - 1.0
22/01:00am 32.9 30.1 10.1 24 13.3 WSW 15 26 8 14 1009.3 - 1.0
22/12:30am 33.4 29.8 9.8 23 13.7 WSW 19 26 10 14 1009.5 - 1.0
22/12:00am 33.1 30.6 9.6 23 13.6 W 13 19 7 10 1009.9 1007.8 1.0
 
Date/Time
CST
Temp
°C
App
Temp
°C
Dew
Point
Rel
Hum
%
Delta-T
°C
Wind Press
QNH
hPa
Press
MSL
hPa
Rain
since 9 am
mm
Dir
 
Spd
km/h
Gust
km/h
Spd
kts
Gust
kts
21/11:30pm 33.2 30.0 9.8 23 13.6 SW 17 26 9 14 1010.3 - 1.0
21/11:00pm 33.8 29.1 9.2 22 14.2 WSW 24 43 13 23 1010.4 - 1.0
21/10:30pm 33.7 31.0 10.3 24 13.7 WSW 15 20 8 11 1010.9 - 1.0
21/10:00pm 33.9 29.2 9.3 22 14.2 WSW 24 43 13 23 1010.7 - 1.0
21/09:30pm 34.3 29.8 8.7 20 14.7 SW 22 35 12 19 1010.2 - 1.0
21/09:00pm 35.1 30.7 7.2 18 15.7 WSW 20 30 11 16 1010.0 1007.8 1.0
21/08:30pm 36.2 33.6 7.8 17 16.2 WNW 11 15 6 8 1009.5 - 1.0
21/08:00pm 36.6 34.1 8.0 17 16.4 WNW 11 17 6 9 1009.1 - 1.0
21/07:30pm 37.0 33.1 7.0 16 17.0 WSW 17 24 9 13 1008.7 - 1.0
21/07:00pm 37.9 34.4 7.2 15 17.5 WNW 15 22 8 12 1008.1 - 1.0
21/06:30pm 38.3 34.0 6.8 14 17.9 WNW 19 28 10 15 1007.7 - 1.0
21/06:00pm 38.7 34.6 6.0 13 18.4 NW 17 30 9 16 1007.3 1005.2 1.0
21/05:30pm 38.9 34.7 5.7 13 18.6 WNW 17 26 9 14 1007.2 - 1.0
21/05:00pm 39.1 35.9 6.9 14 18.3 NW 13 19 7 10 1007.2 - 1.0
21/04:30pm 39.2 35.4 7.7 15 18.2 NW 17 22 9 12 1007.2 - 1.0
21/04:00pm 38.3 36.9 11.0 19 16.5 N 9 17 5 9 1007.3 - 1.0
21/03:30pm 36.0 35.9 17.0 32 12.4 SE 13 19 7 10 1007.3 - 1.0
21/03:00pm 36.1 32.6 13.3 25 14.1 SSE 24 41 13 22 1007.5 1005.4 1.0
21/02:47pm 36.0 36.6 19.5 38 11.1 WNW 15 26 8 14 1007.6 - 1.0
21/02:30pm 41.5 37.6 5.3 11 20.4 NW 15 24 8 13 1007.6 - 0.0
21/02:00pm 42.2 39.6 6.3 11 20.6 WSW 9 20 5 11 1007.8 - 0.0
21/01:30pm 42.7 38.0 5.3 10 21.2 NW 19 41 10 22 1008.4 - 0.0
21/01:00pm 39.7 37.7 8.7 15 18.2 SW 9 15 5 8 1008.9 - 0.0
21/12:59pm 34.5 35.1 16.7 34 11.5 SSW 9 15 5 8 1008.9 - 0.0
21/12:30pm 21.1 - - - - W 17 24 9 13 1009.4 - 0.0
21/12:00pm 20.5 - - - - NE 19 22 10 12 1009.9 1007.8 0.0
21/11:30am 20.6 - - - - N 15 24 8 13 1010.4 - 0.0
21/11:00am 20.2 - - - - NW 11 22 6 12 1010.8 - 0.0
21/10:30am 19.9 - - - - NNE 11 20 6 11 1011.2 - 0.0
21/10:00am 18.7 - - - - NE 13 20 7 11 1011.6 - 0.0
21/09:30am 17.8 - - - - ESE 13 20 7 11 1011.8 - 0.0
21/09:00am 17.6 - - - - E 13 19 7 10 1012.2 - 0.0
21/08:30am 17.2 - - - - SE 13 19 7 10 1012.1 - 0.0
21/08:00am 16.5 - - - - SSE 13 17 7 9 1012.1 - 0.0
21/07:30am 16.2 - - - - S 9 13 5 7 1012.2 - 0.0
21/07:00am 15.5 - - - - S 11 15 6 8 1011.8 - 0.0
21/06:30am 15.9 - - - - E 6 9 3 5 1011.7 - 0.0
21/06:00am 14.9 - - - - N 11 15 6 8 1010.9 - 0.0
21/05:30am 14.9 - - - - NNW 11 13 6 7 1010.9 - 0.0
21/05:00am 15.1 - - - - N 9 9 5 5 1010.5 - 0.0
21/04:30am 15.0 - - - - CALM 0 0 0 0 1010.2 - 0.0
21/04:00am 16.1 - - - - CALM 0 0 0 0 1009.9 - 0.0
21/03:30am 16.2 - - - - SSE 7 9 4 5 1009.5 - 0.0
21/03:00am 16.1 - - - - SSE 11 17 6 9 1009.5 - 0.0
21/02:30am 16.1 - - - - SSE 15 24 8 13 1009.6 - 0.0
21/02:00am 16.2 - - - - S 17 22 9 12 1009.9 - 0.0
21/01:30am 16.7 - - - - S 11 15 6 8 1009.9 - 0.0
21/01:00am 17.0 - - - - S 9 11 5 6 1009.9 - 0.0
21/12:30am 16.6 - - - - SSW 9 11 5 6 1010.0 - 0.0
21/12:00am 17.5 - - - - SSE 11 15 6 8 1010.3 - 0.0
 
Date/Time
CST
Temp
°C
App
Temp
°C
Dew
Point
Rel
Hum
%
Delta-T
°C
Wind Press
QNH
hPa
Press
MSL
hPa
Rain
since 9 am
mm
Dir
 
Spd
km/h
Gust
km/h
Spd
kts
Gust
kts
20/11:30pm 17.5 - - - - S 9 13 5 7 1010.6 - 0.0
20/11:00pm 17.1 - - - - WSW 7 11 4 6 1010.9 - 0.0
20/10:30pm 17.2 - - - - E 6 7 3 4 1010.7 - 0.0
20/10:00pm 18.3 - - - - CALM 0 0 0 0 1010.6 - 0.0
20/09:30pm 18.4 - - - - ESE 7 11 4 6 1010.1 - 0.0
20/09:00pm 18.9 - - - - S 9 13 5 7 1009.7 - 0.0
20/08:30pm 19.2 - - - - S 9 13 5 7 1009.2 - 0.0
20/08:00pm 19.3 - - - - S 11 19 6 10 1008.9 - 0.0
20/07:30pm 20.2 - - - - CALM 0 0 0 0 1008.4 - 0.0
20/07:00pm 20.7 - - - - SSW 6 9 3 5 1008.0 - 0.0
20/06:30pm 20.0 - - - - NNW 15 20 8 11 1007.7 - 0.0
20/06:00pm 20.6 - - - - WNW 6 15 3 8 1007.3 - 0.0
20/05:30pm 20.5 - - - - NNW 7 11 4 6 1007.0 - 0.0
20/05:00pm 21.1 - - - - W 7 13 4 7 1006.9 - 0.0
20/04:30pm 20.4 - - - - NW 9 24 5 13 1006.9 - 0.0
20/04:00pm 20.6 - - - - N 15 22 8 12 1007.1 - 0.0
20/03:30pm 20.6 - - - - N 15 24 8 13 1007.3 - 0.0

Other Formats:

Comma delimited format used in spreadsheet applications
http://www.bom.gov.au/fwo/IDD60801/IDD60801.94327.axf

JavaScript Object Notation format (JSON) in row-major order
http://www.bom.gov.au/fwo/IDD60801/IDD60801.94327.json